LiveATC.Net - Listen to live air traffic control over the Internet!


ICAO: CYOW  IATA: YOW   Airport: Ottawa MacDonald Cartier International Airport
City: Ottawa   State/Province: Ontario
Country: Canada   Continent: North America
CYOW METAR Weather: CYOW 051900Z 29014KT 15SM SCT045 BKN080 23/13 A2994 RMK CU3AC2 SLP138 DENSITY ALT 1400FT
CYOW Flight Activity (FlightAware)

CYOW Gnd/Twr/App
Feed Status: UP   Listeners: 1
Listen in your browser - HTML5 player (in browser, HTML5)
Click here to listen with your own player (launches your MP3 player)
Archive Access: CYOW Gnd/Twr/App
FacilityFrequency
De-Icing (Ice Man)122.350
De-Icing (Pad Control)122.925
Ottawa Ground121.900
Ottawa Terminal127.700
Ottawa Terminal (Arrivals)135.150
Ottawa Terminal (Departures)128.175
Ottawa Tower118.800
Ottawa Tower120.100

NOTICE

Unauthorized use prohibited. See LiveATC.net Terms of Service


Airport/ARTCC Code
Frequency Search
(e.g., 124.400, 128.75)
Site-wide search
 


Browse Feeds
Top 50 Feeds
Coverage Map
Bad Weather Areas

LiveATC FAQ
Offer LiveATC feed
Contact LiveATC.net
Press Inquiries

LiveATC on iPhone
LiveATC on Android

Windows Phone
Windows 8/10

LiveATC Mobile
(Mobile browser)

ATC Audio Archives
Interesting Recordings

LiveATC Forums


Home Page
About LiveATC.net
Make a Donation
Terms of Use
Privacy Policy

Canadian Air Freqs

AIRMETs/SIGMETs

FAA Airport Status
Nat'l Airspace Status
Arrival Demand Charts


Server Software By:
Icecast.org
Liquidsoap